Time;durP1;ratioP1;P1;durP2;ratioP2;P2;SDS_P1;SDS_P2;PMS_P1;PMS_P2;Temp;Humidity;BMP_temperature;BMP_pressure;BME280_temperature;BME280_humidity;BME280_pressure;Samples;Min_cycle;Max_cycle;Signal;HPM_P1;HPM_P2
2021/03/27 00:01:09;;;;;;;15.75;8.93;;;10.70;99.90;;;;;;5032121;28;20040;-65
2021/03/27 00:03:51;;;;;;;13.25;7.55;;;10.60;99.90;;;;;;5032609;28;20438;-65
2021/03/27 00:06:42;;;;;;;17.88;7.05;;;10.70;99.90;;;;;;5031229;28;20052;-65
2021/03/27 00:09:40;;;;;;;15.80;6.68;;;10.50;99.90;;;;;;5031245;28;20033;-65
2021/03/27 00:12:37;;;;;;;13.30;7.28;;;10.40;99.90;;;;;;5030727;28;20243;-66
2021/03/27 00:15:35;;;;;;;13.77;6.53;;;10.50;99.90;;;;;;5032309;28;20390;-65
2021/03/27 00:18:23;;;;;;;13.73;6.63;;;10.50;99.90;;;;;;5031278;28;20116;-65
2021/03/27 00:21:17;;;;;;;12.57;7.35;;;10.50;99.90;;;;;;5031091;28;20034;-65
2021/03/27 00:24:15;;;;;;;11.70;6.78;;;10.60;99.90;;;;;;5031041;28;20030;-65
2021/03/27 00:26:45;;;;;;;13.23;7.05;;;10.70;99.90;;;;;;5031305;28;20037;-66
2021/03/27 00:29:25;;;;;;;14.48;7.72;;;10.60;99.90;;;;;;5030852;28;20057;-66
2021/03/27 00:32:06;;;;;;;16.35;7.57;;;10.60;99.90;;;;;;5031105;28;20075;-66
2021/03/27 00:34:41;;;;;;;;;;;10.50;99.90;;;;;;5032621;28;20442;-66
2021/03/27 00:37:19;;;;;;;11.80;6.15;;;10.50;99.90;;;;;;5030949;28;19917;-66
2021/03/27 00:39:52;;;;;;;12.02;6.13;;;10.60;99.90;;;;;;5031078;28;20025;-66
2021/03/27 00:42:24;;;;;;;14.98;6.28;;;10.60;99.90;;;;;;5030748;28;20044;-66
2021/03/27 00:44:56;;;;;;;13.65;6.72;;;10.60;99.90;;;;;;5031788;28;20036;-66
2021/03/27 00:47:28;;;;;;;14.25;6.60;;;10.70;99.90;;;;;;5032056;28;20065;-66
2021/03/27 00:50:11;;;;;;;10.85;6.15;;;10.80;99.90;;;;;;5034301;28;20036;-65
2021/03/27 00:52:43;;;;;;;16.27;6.32;;;10.90;99.90;;;;;;5035807;28;20037;-66
2021/03/27 00:55:14;;;;;;;;;;;10.90;99.90;;;;;;5034921;28;20025;-66
2021/03/27 00:58:05;;;;;;;13.18;5.60;;;11.00;99.90;;;;;;5034607;28;19920;-65
2021/03/27 01:00:39;;;;;;;;;;;11.10;99.90;;;;;;5036007;28;20029;-66
2021/03/27 01:03:39;;;;;;;12.07;5.70;;;11.10;99.90;;;;;;5033969;28;20413;-65
2021/03/27 01:06:13;;;;;;;8.40;5.18;;;11.20;99.90;;;;;;5034031;28;20053;-66
2021/03/27 01:08:42;;;;;;;11.00;5.53;;;11.20;99.90;;;;;;5034427;28;20048;-66
2021/03/27 01:11:22;;;;;;;11.90;5.57;;;11.30;99.90;;;;;;5033970;28;20494;-66
2021/03/27 01:13:54;;;;;;;12.10;5.10;;;11.30;99.90;;;;;;5034409;28;20037;-65
2021/03/27 01:16:35;;;;;;;8.98;5.10;;;11.40;99.90;;;;;;5034034;28;20030;-65
2021/03/27 01:19:11;;;;;;;9.90;5.18;;;11.40;99.90;;;;;;5034237;28;20037;-65
2021/03/27 01:21:41;;;;;;;9.32;4.90;;;11.40;99.90;;;;;;5018025;28;20175;-65
2021/03/27 01:24:12;;;;;;;10.00;5.05;;;11.40;99.90;;;;;;5035150;28;20079;-65
2021/03/27 01:26:53;;;;;;;8.57;4.60;;;11.60;99.90;;;;;;5035220;28;20102;-65
2021/03/27 01:29:32;;;;;;;9.60;4.78;;;11.70;99.90;;;;;;5035069;28;20037;-65
2021/03/27 01:32:00;;;;;;;9.32;5.20;;;11.60;99.90;;;;;;5035140;28;20478;-65
2021/03/27 01:34:34;;;;;;;9.95;5.05;;;11.60;99.90;;;;;;5049939;28;20052;-65
2021/03/27 01:37:24;;;;;;;7.25;4.47;;;11.70;99.90;;;;;;5035099;28;20079;-65
2021/03/27 01:40:38;;;;;;;8.20;4.82;;;11.70;99.90;;;;;;5033833;28;20034;-65
2021/03/27 01:43:33;;;;;;;9.57;4.75;;;11.70;99.90;;;;;;5033917;28;20064;-65
2021/03/27 01:46:11;;;;;;;8.13;4.72;;;11.70;99.90;;;;;;5018905;28;20415;-65
2021/03/27 01:48:41;;;;;;;11.18;5.07;;;11.70;99.90;;;;;;5034842;28;20041;-65
2021/03/27 01:51:55;;;;;;;13.25;5.13;;;11.70;99.90;;;;;;5034843;28;20482;-65
2021/03/27 01:54:27;;;;;;;11.90;4.95;;;11.70;99.90;;;;;;5034139;28;20499;-65
2021/03/27 01:57:42;;;;;;;8.52;4.68;;;11.60;99.90;;;;;;5034636;28;20136;-65
2021/03/27 02:00:28;;;;;;;7.90;4.32;;;11.60;99.90;;;;;;5033379;28;20022;-65
2021/03/27 02:03:02;;;;;;;7.93;4.78;;;11.60;99.90;;;;;;5034009;28;20041;-64
2021/03/27 02:05:42;;;;;;;8.57;4.53;;;11.50;99.90;;;;;;5033206;28;20037;-65
2021/03/27 02:08:22;;;;;;;10.35;4.78;;;11.50;99.90;;;;;;5033399;28;20025;-65
2021/03/27 02:11:36;;;;;;;8.85;4.80;;;11.50;99.90;;;;;;5033178;28;20036;-66
2021/03/27 02:14:32;;;;;;;9.30;4.43;;;11.60;99.90;;;;;;5034220;28;20060;-65
2021/03/27 02:17:01;;;;;;;8.02;4.47;;;11.50;99.90;;;;;;5033215;28;20025;-65
2021/03/27 02:20:01;;;;;;;11.32;5.10;;;11.50;99.90;;;;;;5033622;28;20041;-65
2021/03/27 02:22:40;;;;;;;8.10;4.95;;;11.50;99.90;;;;;;5033968;28;20038;-65
2021/03/27 02:25:58;;;;;;;10.18;4.38;;;11.60;99.90;;;;;;5032827;28;20554;-65
2021/03/27 02:28:36;;;;;;;8.00;4.43;;;11.30;99.90;;;;;;5032849;28;20041;-66
2021/03/27 02:31:11;;;;;;;10.57;4.95;;;11.30;99.90;;;;;;5049435;28;20029;-66
2021/03/27 02:34:15;;;;;;;10.15;4.82;;;11.00;99.90;;;;;;5016205;28;20033;-67
2021/03/27 02:37:27;;;;;;;8.70;4.45;;;10.50;99.90;;;;;;5033626;28;20478;-66
2021/03/27 02:39:59;;;;;;;10.35;5.00;;;10.10;99.90;;;;;;5032922;28;20500;-67
2021/03/27 02:42:31;;;;;;;11.70;5.95;;;10.00;99.90;;;;;;5032124;28;20037;-67
2021/03/27 02:45:13;;;;;;;8.50;5.47;;;10.00;99.90;;;;;;5032458;28;20090;-67
2021/03/27 02:48:20;;;;;;;7.40;4.82;;;9.90;99.90;;;;;;5033609;28;20430;-66
2021/03/27 02:51:09;;;;;;;11.52;5.35;;;9.90;99.90;;;;;;5033610;28;20125;-67
2021/03/27 02:53:48;;;;;;;8.30;4.30;;;9.90;99.90;;;;;;5033404;28;20069;-66
2021/03/27 02:56:35;;;;;;;14.43;5.30;;;9.90;99.90;;;;;;5033262;28;20037;-66
2021/03/27 02:59:26;;;;;;;8.70;4.68;;;10.00;99.90;;;;;;5033520;28;20048;-66
2021/03/27 03:02:46;;;;;;;6.13;3.90;;;10.10;99.90;;;;;;5032081;28;20041;-65
2021/03/27 03:05:37;;;;;;;5.60;2.85;;;10.20;99.90;;;;;;5033333;28;20116;-66
2021/03/27 03:08:31;;;;;;;5.82;2.95;;;10.30;99.90;;;;;;5033617;28;20552;-66
2021/03/27 03:11:14;;;;;;;5.82;3.25;;;10.30;99.90;;;;;;5031164;28;20092;-66
2021/03/27 03:13:45;;;;;;;5.30;2.75;;;10.30;99.90;;;;;;5031764;28;20428;-67
2021/03/27 03:16:28;;;;;;;5.18;2.45;;;10.20;99.90;;;;;;5031967;28;20037;-66
2021/03/27 03:19:21;;;;;;;4.00;2.33;;;10.10;99.90;;;;;;5033221;28;20072;-66
2021/03/27 03:22:17;;;;;;;4.28;2.15;;;10.20;99.90;;;;;;5031838;28;20037;-66
2021/03/27 03:24:57;;;;;;;7.05;1.90;;;10.30;99.90;;;;;;5033054;28;20475;-66
2021/03/27 03:27:34;;;;;;;4.18;2.08;;;10.30;99.90;;;;;;5031718;28;20030;-65
2021/03/27 03:30:41;;;;;;;4.43;2.15;;;10.30;99.90;;;;;;5032701;28;20387;-65
2021/03/27 03:33:50;;;;;;;7.50;2.78;;;10.30;99.90;;;;;;5033004;28;20700;-65
2021/03/27 03:37:03;;;;;;;4.22;1.88;;;10.30;99.90;;;;;;5030322;28;20045;-65
2021/03/27 03:40:12;;;;;;;3.60;1.55;;;10.30;99.90;;;;;;5011153;28;20041;-65
2021/03/27 03:42:47;;;;;;;3.70;1.63;;;10.40;99.90;;;;;;5032316;28;20041;-65
2021/03/27 03:45:40;;;;;;;3.50;1.65;;;10.30;99.90;;;;;;5032773;28;20069;-65
2021/03/27 03:48:33;;;;;;;2.92;1.67;;;10.20;99.90;;;;;;5032398;28;20417;-65
2021/03/27 03:51:45;;;;;;;3.80;1.27;;;10.20;99.90;;;;;;5032673;28;20036;-65
2021/03/27 03:54:20;;;;;;;1.92;0.88;;;10.00;99.90;;;;;;5032562;28;20037;-65
2021/03/27 03:57:15;;;;;;;2.03;0.90;;;10.00;99.90;;;;;;5032535;28;20056;-65
2021/03/27 04:00:25;;;;;;;1.27;0.60;;;9.90;99.90;;;;;;5031420;28;20072;-65
2021/03/27 04:03:45;;;;;;;1.40;0.60;;;9.80;99.90;;;;;;5025351;28;20091;-65
2021/03/27 04:06:24;;;;;;;1.08;0.60;;;9.70;99.90;;;;;;5031928;28;20033;-65
2021/03/27 04:09:00;;;;;;;0.73;0.52;;;9.60;99.90;;;;;;5031343;28;20025;-65
2021/03/27 04:12:02;;;;;;;1.05;0.50;;;9.40;99.90;;;;;;5032396;28;20132;-64
2021/03/27 04:14:50;;;;;;;0.82;0.50;;;9.30;99.90;;;;;;5032236;28;20053;-64
2021/03/27 04:17:38;;;;;;;0.43;0.35;;;9.10;99.90;;;;;;5032511;28;20092;-66
2021/03/27 04:20:32;;;;;;;0.75;0.38;;;9.00;99.90;;;;;;5030946;28;20072;-66
2021/03/27 04:23:10;;;;;;;0.80;0.40;;;9.00;99.90;;;;;;5031533;28;20033;-65
2021/03/27 04:26:14;;;;;;;2.70;0.40;;;8.90;99.90;;;;;;5036132;28;20030;-65
2021/03/27 04:28:40;;;;;;;0.90;0.43;;;8.80;99.90;;;;;;5035353;28;20120;-65
2021/03/27 04:31:28;;;;;;;1.02;0.65;;;8.60;99.90;;;;;;5035918;28;20530;-65
2021/03/27 04:34:32;;;;;;;0.90;0.43;;;8.50;99.90;;;;;;5036302;28;20041;-64
2021/03/27 04:37:23;;;;;;;0.45;0.32;;;8.50;99.90;;;;;;5035172;28;20120;-65
2021/03/27 04:40:09;;;;;;;0.47;0.40;;;8.50;99.90;;;;;;5036266;28;20037;-65
2021/03/27 04:43:07;;;;;;;0.75;0.30;;;8.40;99.90;;;;;;5035860;28;20091;-65
2021/03/27 04:45:50;;;;;;;3.85;0.52;;;8.40;99.90;;;;;;5034642;28;20021;-65
2021/03/27 04:48:41;;;;;;;0.47;0.40;;;8.30;99.90;;;;;;5018946;28;20029;-65
2021/03/27 04:51:19;;;;;;;0.98;0.50;;;8.20;99.90;;;;;;5035691;28;20470;-65
2021/03/27 04:54:19;;;;;;;0.77;0.20;;;8.10;99.90;;;;;;5035640;28;20490;-66
2021/03/27 04:57:10;;;;;;;2.55;0.30;;;8.00;99.90;;;;;;5035603;28;20069;-66
2021/03/27 04:59:49;;;;;;;0.33;0.20;;;7.90;99.90;;;;;;5035706;28;20125;-66
2021/03/27 05:02:22;;;;;;;0.70;0.40;;;7.90;99.90;;;;;;5035432;28;20406;-66
2021/03/27 05:05:25;;;;;;;0.30;0.30;;;7.80;99.90;;;;;;5033987;28;20042;-65
2021/03/27 05:08:11;;;;;;;0.45;0.30;;;7.80;99.90;;;;;;5034437;28;20113;-66
2021/03/27 05:11:17;;;;;;;0.20;0.20;;;7.80;99.90;;;;;;5035450;28;20038;-65
2021/03/27 05:14:00;;;;;;;0.40;0.20;;;7.80;99.90;;;;;;5035109;28;20386;-65
2021/03/27 05:16:32;;;;;;;1.02;0.32;;;7.70;99.90;;;;;;5018046;28;20033;-66
2021/03/27 05:19:11;;;;;;;0.95;0.22;;;7.60;99.90;;;;;;5035081;28;20421;-65
2021/03/27 05:21:55;;;;;;;0.40;0.40;;;7.60;99.90;;;;;;5034043;28;20037;-65
2021/03/27 05:24:58;;;;;;;2.90;1.20;;;7.60;99.90;;;;;;5033755;28;20083;-65
2021/03/27 05:27:30;;;;;;;2.05;0.40;;;7.60;99.90;;;;;;5034035;28;20382;-65
2021/03/27 05:30:10;;;;;;;1.33;0.65;;;7.60;99.90;;;;;;5035020;28;20417;-66
2021/03/27 05:32:56;;;;;;;0.43;0.38;;;7.60;99.90;;;;;;5033975;28;20052;-65
2021/03/27 05:35:47;;;;;;;1.15;0.55;;;7.60;99.90;;;;;;5034308;28;20065;-65
2021/03/27 05:38:43;;;;;;;1.13;0.80;;;7.60;99.90;;;;;;5033401;28;20106;-65
2021/03/27 05:41:43;;;;;;;1.73;1.15;;;7.60;99.90;;;;;;5034697;28;20113;-65
2021/03/27 05:44:52;;;;;;;1.15;0.70;;;7.60;99.90;;;;;;5034576;28;20505;-65
2021/03/27 05:47:57;;;;;;;2.17;0.98;;;7.60;99.90;;;;;;5033768;28;20037;-65
2021/03/27 05:50:46;;;;;;;2.58;0.70;;;7.60;99.90;;;;;;5033815;28;20127;-66
2021/03/27 05:53:52;;;;;;;1.38;0.80;;;7.70;99.90;;;;;;5033600;28;20025;-65
2021/03/27 05:56:54;;;;;;;1.80;0.90;;;7.60;99.90;;;;;;5034730;28;20065;-65
2021/03/27 06:00:03;;;;;;;1.50;0.77;;;7.50;99.90;;;;;;5033220;28;20055;-66
2021/03/27 06:02:57;;;;;;;2.42;0.93;;;7.60;99.90;;;;;;5032924;28;20049;-66
2021/03/27 06:06:07;;;;;;;1.77;1.08;;;7.50;99.90;;;;;;5034433;28;20120;-66
2021/03/27 06:09:18;;;;;;;3.13;1.20;;;7.50;99.90;;;;;;5032982;28;20402;-66
2021/03/27 06:12:28;;;;;;;4.07;1.50;;;7.40;99.90;;;;;;5034349;28;20037;-65
2021/03/27 06:16:06;;;;;;;3.67;1.13;;;7.50;99.90;;;;;;5034310;28;20040;-66
2021/03/27 06:19:28;;;;;;;6.47;1.33;;;7.50;99.90;;;;;;5031603;28;20030;-66
2021/03/27 06:22:24;;;;;;;6.53;1.60;;;7.40;99.90;;;;;;5034116;28;20032;-65
2021/03/27 06:25:43;;;;;;;2.58;1.55;;;7.50;99.90;;;;;;5034065;28;20350;-65
2021/03/27 06:29:08;;;;;;;2.75;1.55;;;7.50;99.90;;;;;;5016448;28;20061;-65
2021/03/27 06:32:19;;;;;;;4.13;1.95;;;7.60;99.90;;;;;;5031261;28;20465;-66
2021/03/27 06:34:55;;;;;;;4.20;1.83;;;7.70;99.90;;;;;;5031267;28;20032;-65
2021/03/27 06:37:58;;;;;;;2.40;1.40;;;7.70;99.90;;;;;;4998772;28;20047;-66
2021/03/27 06:40:37;;;;;;;5.70;1.80;;;7.60;99.90;;;;;;5031211;28;20071;-66
2021/03/27 06:43:05;;;;;;;2.65;1.40;;;7.60;99.90;;;;;;4998264;28;20100;-65
2021/03/27 06:46:34;;;;;;;7.10;1.25;;;7.70;99.90;;;;;;5030428;28;20171;-67
2021/03/27 06:50:03;;;;;;;3.22;1.40;;;7.70;99.90;;;;;;4933902;29;20481;-68
2021/03/27 06:53:15;;;;;;;4.55;1.25;;;7.80;99.90;;;;;;4935525;28;20072;-66
2021/03/27 06:56:15;;;;;;;3.47;1.05;;;7.80;99.90;;;;;;5016658;28;20049;-66
2021/03/27 06:58:56;;;;;;;6.43;0.98;;;7.90;99.90;;;;;;5030750;28;20042;-65
2021/03/27 07:02:20;;;;;;;3.53;0.88;;;7.90;99.90;;;;;;5031056;28;20487;-66
2021/03/27 07:05:18;;;;;;;6.32;0.88;;;7.90;99.90;;;;;;5032188;28;20037;-65
2021/03/27 07:07:55;;;;;;;3.30;1.20;;;8.00;99.90;;;;;;5032325;28;20091;-66
2021/03/27 07:11:14;;;;;;;2.03;0.70;;;8.00;99.90;;;;;;5033324;28;20037;-65
2021/03/27 07:14:10;;;;;;;2.28;0.80;;;8.00;99.90;;;;;;5033080;28;20029;-65
2021/03/27 07:17:07;;;;;;;4.00;0.98;;;8.20;99.90;;;;;;5033149;28;20036;-65
2021/03/27 07:20:00;;;;;;;2.20;0.70;;;8.30;99.90;;;;;;5032829;28;20040;-66
2021/03/27 07:22:53;;;;;;;2.30;0.90;;;8.30;99.90;;;;;;5033057;28;20040;-66
2021/03/27 07:26:15;;;;;;;2.42;0.80;;;8.10;99.90;;;;;;5032950;28;20040;-65
2021/03/27 07:29:04;;;;;;;5.25;1.10;;;8.20;99.90;;;;;;5032313;28;20045;-65
2021/03/27 07:32:27;;;;;;;4.53;0.80;;;8.40;99.90;;;;;;5032836;28;20031;-66
2021/03/27 07:35:21;;;;;;;4.05;1.25;;;8.40;99.90;;;;;;5031353;28;20095;-66
2021/03/27 07:38:14;;;;;;;4.95;1.52;;;8.60;99.90;;;;;;5047870;28;20033;-66
2021/03/27 07:41:00;;;;;;;2.65;0.88;;;8.60;99.90;;;;;;5031572;28;20033;-66
2021/03/27 07:43:26;;;;;;;3.92;0.77;;;8.40;99.90;;;;;;5032591;28;20033;-66
2021/03/27 07:46:30;;;;;;;4.10;0.85;;;8.30;99.90;;;;;;5032502;28;20116;-66
2021/03/27 07:49:02;;;;;;;2.33;0.73;;;8.60;99.90;;;;;;5030753;28;20045;-65
2021/03/27 07:52:16;;;;;;;2.05;0.77;;;8.50;99.90;;;;;;5032634;28;20041;-65
2021/03/27 07:55:09;;;;;;;3.55;0.80;;;8.50;99.90;;;;;;5032403;28;20164;-64
2021/03/27 07:58:02;;;;;;;5.72;1.10;;;8.40;99.90;;;;;;5032041;28;20030;-68
2021/03/27 08:01:07;;;;;;;7.10;1.17;;;8.20;99.90;;;;;;5031439;28;20060;-69
2021/03/27 08:03:51;;;;;;;3.17;1.13;;;8.30;99.90;;;;;;5031213;28;20041;-68
2021/03/27 08:06:45;;;;;;;3.05;0.77;;;8.30;99.90;;;;;;5031452;28;20036;-68
2021/03/27 08:09:54;;;;;;;1.67;0.55;;;8.30;99.90;;;;;;5031400;28;20041;-68
2021/03/27 08:12:54;;;;;;;2.72;0.68;;;8.40;99.90;;;;;;5032523;28;20034;-68
2021/03/27 08:15:42;;;;;;;4.03;0.95;;;8.40;99.90;;;;;;5032325;28;20034;-68
2021/03/27 08:18:50;;;;;;;10.30;1.52;;;8.40;99.90;;;;;;5032442;28;20073;-69
2021/03/27 08:21:38;;;;;;;4.45;0.77;;;8.40;99.90;;;;;;5032351;28;20030;-68
2021/03/27 08:24:19;;;;;;;4.07;1.05;;;8.50;99.20;;;;;;5032366;28;20033;-69
2021/03/27 08:27:20;;;;;;;1.70;0.55;;;8.60;99.90;;;;;;5032310;28;20039;-69
2021/03/27 08:30:40;;;;;;;4.90;1.38;;;8.60;98.70;;;;;;5032224;28;20029;-68
2021/03/27 08:33:41;;;;;;;5.95;1.40;;;8.60;98.90;;;;;;5032356;28;20025;-69
2021/03/27 08:36:29;;;;;;;5.97;1.30;;;8.50;99.90;;;;;;5032284;28;20112;-68
2021/03/27 08:39:26;;;;;;;4.20;1.05;;;8.50;99.90;;;;;;5030562;28;20437;-69
2021/03/27 08:42:26;;;;;;;6.45;1.00;;;8.50;99.30;;;;;;5031874;28;20113;-70
2021/03/27 08:45:16;;;;;;;5.25;1.13;;;8.40;98.60;;;;;;5031746;28;20451;-69
2021/03/27 08:47:51;;;;;;;7.63;1.48;;;8.50;99.60;;;;;;5031988;28;20121;-69
2021/03/27 08:51:10;;;;;;;2.40;0.65;;;8.80;99.70;;;;;;5031811;28;20033;-69
2021/03/27 08:53:53;;;;;;;4.55;0.93;;;8.90;98.60;;;;;;5031035;28;20037;-69
2021/03/27 08:56:44;;;;;;;5.95;1.77;;;8.80;98.00;;;;;;5031794;28;20446;-70
2021/03/27 08:59:55;;;;;;;5.70;1.65;;;8.90;98.40;;;;;;5032027;28;20072;-69
2021/03/27 09:02:42;;;;;;;2.78;0.73;;;9.00;98.60;;;;;;5031592;28;20107;-69
2021/03/27 09:05:40;;;;;;;4.72;1.23;;;9.10;98.80;;;;;;5031692;28;20468;-69
2021/03/27 09:08:27;;;;;;;7.00;1.48;;;9.00;98.30;;;;;;5032061;28;20088;-69
2021/03/27 09:11:13;;;;;;;5.18;1.30;;;9.10;98.00;;;;;;5035022;28;20037;-69
2021/03/27 09:14:15;;;;;;;12.13;1.27;;;9.10;97.40;;;;;;5035482;28;20037;-69
2021/03/27 09:17:01;;;;;;;3.53;0.68;;;9.20;97.80;;;;;;5035212;28;20059;-69
2021/03/27 09:19:53;;;;;;;3.83;1.35;;;9.40;97.40;;;;;;5034371;28;20033;-69
2021/03/27 09:23:04;;;;;;;5.32;1.30;;;9.60;97.20;;;;;;5035313;28;20047;-69
2021/03/27 09:25:52;;;;;;;8.30;1.00;;;9.60;96.50;;;;;;5034000;28;20427;-69
2021/03/27 09:28:57;;;;;;;4.63;0.75;;;9.60;95.50;;;;;;5035209;28;20073;-69
2021/03/27 09:32:00;;;;;;;4.15;1.20;;;9.60;95.30;;;;;;5034834;28;20112;-69
2021/03/27 09:34:57;;;;;;;2.50;0.82;;;9.70;97.00;;;;;;5034794;28;20033;-69
2021/03/27 09:38:12;;;;;;;7.63;0.95;;;9.70;95.70;;;;;;5034879;28;20036;-70
2021/03/27 09:41:30;;;;;;;5.65;0.85;;;9.90;95.90;;;;;;5034600;28;20034;-69
2021/03/27 09:44:19;;;;;;;5.40;1.92;;;9.80;96.10;;;;;;5050217;28;20422;-69
2021/03/27 09:47:22;;;;;;;11.45;1.52;;;9.80;94.30;;;;;;5034640;28;20044;-69
2021/03/27 09:50:22;;;;;;;4.97;1.00;;;10.00;93.50;;;;;;5034693;28;20036;-69
2021/03/27 09:53:10;;;;;;;3.47;1.10;;;10.50;94.10;;;;;;5034558;28;20034;-69
2021/03/27 09:55:59;;;;;;;5.70;0.70;;;10.50;92.70;;;;;;5034649;28;20033;-69
2021/03/27 09:58:52;;;;;;;6.00;1.15;;;10.30;91.40;;;;;;5034767;28;20036;-69
2021/03/27 10:01:48;;;;;;;6.75;0.80;;;10.20;92.90;;;;;;5034362;28;20049;-69
2021/03/27 10:04:44;;;;;;;4.53;1.02;;;10.00;93.50;;;;;;5035723;28;20041;-68
2021/03/27 10:07:41;;;;;;;1.85;0.63;;;10.30;93.50;;;;;;5034374;28;20132;-69
2021/03/27 10:10:37;;;;;;;3.55;0.60;;;10.40;92.70;;;;;;5033126;28;20029;-68
2021/03/27 10:13:36;;;;;;;5.82;0.98;;;10.50;91.10;;;;;;5033807;28;20050;-68
2021/03/27 10:16:11;;;;;;;3.53;0.65;;;10.50;91.30;;;;;;5034178;28;20166;-68
2021/03/27 10:19:05;;;;;;;2.50;0.60;;;10.50;91.40;;;;;;5033113;28;20029;-69
2021/03/27 10:22:01;;;;;;;6.38;1.05;;;10.50;90.40;;;;;;5018289;28;20067;-69
2021/03/27 10:24:53;;;;;;;7.97;2.45;;;10.40;90.70;;;;;;5032563;28;20120;-69
2021/03/27 10:28:13;;;;;;;5.10;1.05;;;10.50;90.90;;;;;;5032934;28;20081;-69
2021/03/27 10:30:58;;;;;;;3.63;0.85;;;10.60;90.90;;;;;;5034035;28;20025;-69
2021/03/27 10:33:51;;;;;;;5.18;0.77;;;10.90;90.20;;;;;;5033626;28;20057;-69
2021/03/27 10:36:52;;;;;;;4.57;0.82;;;11.20;88.80;;;;;;5033699;28;20030;-69
2021/03/27 10:39:57;;;;;;;5.38;1.00;;;11.50;86.70;;;;;;5032481;28;20433;-69
2021/03/27 10:42:59;;;;;;;5.75;1.20;;;11.00;84.50;;;;;;5032246;28;20152;-69
2021/03/27 10:45:30;;;;;;;3.80;0.70;;;10.80;86.80;;;;;;5049107;28;20128;-68
2021/03/27 10:48:05;;;;;;;;;;;10.60;87.80;;;;;;5032674;28;20033;-68
2021/03/27 10:50:54;;;;;;;4.63;0.77;;;10.60;88.20;;;;;;5033518;28;19913;-69
2021/03/27 10:54:20;;;;;;;2.90;0.60;;;10.70;88.40;;;;;;5032437;28;20029;-69
2021/03/27 10:57:45;;;;;;;5.68;0.88;;;11.10;86.40;;;;;;5032103;28;20095;-69
2021/03/27 11:01:07;;;;;;;6.10;0.82;;;10.90;87.90;;;;;;5030535;28;20130;-69
2021/03/27 11:04:21;;;;;;;2.40;0.80;;;10.80;85.30;;;;;;5031767;28;20084;-70
2021/03/27 11:07:15;;;;;;;4.13;0.93;;;10.70;87.10;;;;;;5033297;28;20041;-69
2021/03/27 11:10:43;;;;;;;6.65;1.05;;;10.90;86.80;;;;;;5033018;28;20044;-69
2021/03/27 11:13:51;;;;;;;3.58;0.73;;;11.60;83.80;;;;;;5030827;28;20044;-70
2021/03/27 11:17:13;;;;;;;2.13;0.68;;;11.50;82.30;;;;;;5033079;28;20124;-69
2021/03/27 11:20:12;;;;;;;6.60;0.80;;;11.80;81.10;;;;;;5032673;28;20457;-69
2021/03/27 11:23:20;;;;;;;3.00;0.77;;;11.50;78.60;;;;;;5032641;28;20041;-68
2021/03/27 11:26:36;;;;;;;3.92;1.42;;;11.30;81.40;;;;;;5031896;28;20056;-69
2021/03/27 11:29:27;;;;;;;6.43;1.20;;;11.00;89.00;;;;;;5031426;28;20552;-70
2021/03/27 11:32:03;;;;;;;9.35;1.80;;;10.10;99.90;;;;;;5016648;28;20033;-71
2021/03/27 11:35:18;;;;;;;3.88;0.77;;;9.60;99.90;;;;;;5032853;28;20069;-70
2021/03/27 11:38:06;;;;;;;8.02;0.95;;;9.50;99.90;;;;;;5032648;28;20033;-70
2021/03/27 11:41:00;;;;;;;4.95;0.75;;;9.60;97.40;;;;;;5031718;28;20033;-69
2021/03/27 11:44:23;;;;;;;5.78;1.25;;;9.80;95.90;;;;;;5047843;28;20036;-69
2021/03/27 11:47:17;;;;;;;10.77;0.88;;;10.00;95.10;;;;;;5032057;28;20083;-69
2021/03/27 11:49:52;;;;;;;8.65;1.25;;;9.80;95.40;;;;;;5032517;28;20108;-68
2021/03/27 11:53:24;;;;;;;3.78;0.75;;;10.00;96.90;;;;;;5014875;28;20554;-68
2021/03/27 11:56:27;;;;;;;3.03;0.50;;;10.20;97.60;;;;;;5016479;28;20051;-68
2021/03/27 12:02:40;;;;;;;3.83;0.60;;;9.90;98.10;;;;;;5023386;28;20191;-68
2021/03/27 12:05:21;;;;;;;4.65;0.57;;;9.90;98.60;;;;;;5032026;28;20038;-68
2021/03/27 12:08:04;;;;;;;2.67;0.57;;;9.90;98.80;;;;;;5032181;28;20441;-69
2021/03/27 12:10:51;;;;;;;1.77;0.40;;;9.80;99.40;;;;;;5047423;28;20384;-68
2021/03/27 12:13:48;;;;;;;4.43;0.98;;;9.80;99.90;;;;;;5030511;28;20033;-69
2021/03/27 12:16:27;;;;;;;10.52;1.33;;;9.90;99.90;;;;;;5031995;28;20033;-69
2021/03/27 12:19:24;;;;;;;4.55;0.77;;;10.30;99.60;;;;;;5031156;28;20079;-69
2021/03/27 12:22:22;;;;;;;4.32;1.10;;;11.30;97.80;;;;;;5032032;28;20041;-68
2021/03/27 12:25:17;;;;;;;3.70;0.80;;;11.50;97.40;;;;;;5030645;28;20037;-68
2021/03/27 12:28:14;;;;;;;3.45;0.90;;;12.50;93.90;;;;;;5031864;28;20120;-69
2021/03/27 12:31:09;;;;;;;3.08;1.05;;;13.30;90.50;;;;;;5032102;28;20038;-69
2021/03/27 12:34:22;;;;;;;5.38;0.70;;;12.70;88.20;;;;;;5031146;28;20026;-69
2021/03/27 12:36:55;;;;;;;7.30;0.88;;;12.40;88.10;;;;;;5015433;28;20116;-70
2021/03/27 12:39:32;;;;;;;4.18;0.80;;;12.30;90.10;;;;;;5032221;28;20437;-69
2021/03/27 12:42:04;;;;;;;4.45;0.63;;;11.90;92.10;;;;;;5031676;28;20037;-69
2021/03/27 12:45:41;;;;;;;3.08;0.70;;;12.30;91.00;;;;;;5033203;28;20041;-70
2021/03/27 12:49:00;;;;;;;2.05;0.68;;;13.30;88.10;;;;;;5052921;28;20029;-70
2021/03/27 12:52:06;;;;;;;5.15;0.93;;;12.30;92.60;;;;;;5033164;28;20046;-69
2021/03/27 12:55:03;;;;;;;5.55;1.20;;;13.10;90.20;;;;;;5035789;28;20513;-70
2021/03/27 12:57:41;;;;;;;5.72;0.95;;;12.60;86.40;;;;;;5035437;28;20417;-69
2021/03/27 13:00:53;;;;;;;3.70;1.13;;;12.90;85.00;;;;;;5035359;28;20461;-69
2021/03/27 13:03:39;;;;;;;;;;;13.10;79.00;;;;;;5035355;28;20056;-70
2021/03/27 13:06:28;;;;;;;4.97;0.60;;;12.90;83.70;;;;;;5034219;28;19913;-70
2021/03/27 13:09:12;;;;;;;4.47;0.88;;;14.00;75.50;;;;;;5035496;28;20599;-69
2021/03/27 13:11:59;;;;;;;8.82;1.05;;;13.40;77.10;;;;;;5035539;28;20487;-69
2021/03/27 13:14:53;;;;;;;5.88;1.10;;;13.60;78.90;;;;;;5034071;28;20112;-70
2021/03/27 13:18:08;;;;;;;3.33;0.40;;;13.70;73.50;;;;;;5035222;28;20034;-69
2021/03/27 13:20:58;;;;;;;3.60;0.70;;;13.80;74.20;;;;;;5034816;28;20055;-69
2021/03/27 13:23:57;;;;;;;4.53;0.80;;;13.30;80.40;;;;;;5035018;28;20076;-70
2021/03/27 13:26:28;;;;;;;7.60;1.05;;;12.00;81.70;;;;;;5034542;28;20040;-69
2021/03/27 13:29:34;;;;;;;6.90;1.00;;;11.40;88.00;;;;;;5017653;28;20490;-70
2021/03/27 13:32:24;;;;;;;2.90;1.00;;;11.30;86.30;;;;;;5019676;28;20032;-69
2021/03/27 13:35:14;;;;;;;4.25;0.85;;;11.30;89.70;;;;;;5034671;28;20030;-69
2021/03/27 13:37:55;;;;;;;4.00;0.98;;;12.20;86.70;;;;;;5033955;28;20032;-70
2021/03/27 13:40:28;;;;;;;7.00;0.77;;;12.40;85.30;;;;;;5033679;28;20033;-70
2021/03/27 13:43:38;;;;;;;9.63;0.90;;;12.10;87.60;;;;;;5033708;28;20387;-69
2021/03/27 13:46:22;;;;;;;6.82;0.90;;;12.50;87.10;;;;;;5023837;28;20549;-69
2021/03/27 13:49:21;;;;;;;6.82;1.10;;;12.20;86.40;;;;;;5034059;28;20112;-69
2021/03/27 13:51:59;;;;;;;7.35;1.33;;;11.50;86.40;;;;;;5033612;28;20085;-70
2021/03/27 13:54:53;;;;;;;4.95;0.88;;;11.30;90.20;;;;;;5018030;28;20105;-70
2021/03/27 13:57:35;;;;;;;7.25;0.90;;;11.20;90.00;;;;;;5033469;28;20132;-70
2021/03/27 14:00:18;;;;;;;5.55;1.00;;;10.80;92.40;;;;;;5032966;28;20071;-71
2021/03/27 14:03:21;;;;;;;4.47;2.10;;;10.40;96.20;;;;;;5033972;28;20045;-70
2021/03/27 14:06:29;;;;;;;5.72;0.80;;;10.10;96.90;;;;;;5033535;28;20042;-71
2021/03/27 14:09:04;;;;;;;7.82;1.48;;;9.80;99.90;;;;;;5033458;28;20025;-70
2021/03/27 14:12:02;;;;;;;4.90;0.90;;;9.00;99.90;;;;;;5033976;28;20453;-70
2021/03/27 14:14:37;;;;;;;7.28;1.20;;;8.70;99.90;;;;;;5034210;28;20038;-69
2021/03/27 14:17:41;;;;;;;4.93;1.33;;;8.80;99.90;;;;;;5033008;28;20034;-70
2021/03/27 14:20:14;;;;;;;6.88;1.63;;;8.80;99.90;;;;;;5034096;28;20540;-70
2021/03/27 14:23:06;;;;;;;6.03;1.60;;;8.90;99.90;;;;;;5034085;28;20432;-70
2021/03/27 14:25:56;;;;;;;8.68;1.80;;;9.00;99.90;;;;;;5033099;28;20382;-70
2021/03/27 14:29:21;;;;;;;5.30;1.27;;;9.10;99.90;;;;;;5033972;28;20048;-69
2021/03/27 14:32:18;;;;;;;10.85;1.45;;;9.00;99.90;;;;;;5019948;28;20045;-70
2021/03/27 14:35:23;;;;;;;6.22;2.17;;;9.30;99.90;;;;;;5031168;28;20091;-69
2021/03/27 14:37:54;;;;;;;6.40;1.58;;;9.90;99.90;;;;;;5031205;28;20129;-70
2021/03/27 14:40:59;;;;;;;8.60;2.35;;;10.50;99.90;;;;;;5031027;28;20037;-69
2021/03/27 14:44:01;;;;;;;6.57;1.70;;;11.20;99.90;;;;;;5030818;28;20398;-68
2021/03/27 14:47:07;;;;;;;6.93;1.35;;;12.10;99.90;;;;;;5016697;28;20045;-68
2021/03/27 14:50:03;;;;;;;6.43;1.65;;;13.00;96.20;;;;;;5030979;28;20045;-68
2021/03/27 14:53:05;;;;;;;4.07;1.38;;;12.60;96.90;;;;;;5030990;28;20413;-69
2021/03/27 14:55:45;;;;;;;6.50;1.35;;;12.10;97.60;;;;;;4995056;28;20379;-68
2021/03/27 14:58:57;;;;;;;10.65;1.27;;;11.50;97.80;;;;;;5015454;28;20037;-68
2021/03/27 15:01:40;;;;;;;6.97;1.50;;;11.50;98.10;;;;;;5030029;28;20044;-68
2021/03/27 15:04:22;;;;;;;6.95;1.13;;;12.80;95.50;;;;;;5048130;28;20450;-68
2021/03/27 15:07:13;;;;;;;4.65;1.35;;;12.90;95.30;;;;;;5031109;28;20498;-68
2021/03/27 15:10:27;;;;;;;5.38;1.67;;;13.50;93.40;;;;;;5031873;28;20037;-68